sensor_id;sensor_type;location;lat;lon;timestamp;pressure;altitude;pressure_sealevel;temperature;humidity
16461;BME280;8341;42.048;24.650;2023-04-01T00:01:04;96379.88;;;11.45;53.27
16461;BME280;8341;42.048;24.650;2023-04-01T00:03:33;96361.25;;;11.15;54.32
16461;BME280;8341;42.048;24.650;2023-04-01T00:06:00;96381.09;;;11.49;53.65
16461;BME280;8341;42.048;24.650;2023-04-01T00:08:28;96377.63;;;11.43;54.59
16461;BME280;8341;42.048;24.650;2023-04-01T00:10:57;96390.28;;;11.46;55.08
16461;BME280;8341;42.048;24.650;2023-04-01T00:13:26;96383.34;;;11.40;55.61
16461;BME280;8341;42.048;24.650;2023-04-01T00:15:53;96391.28;;;11.43;56.77
16461;BME280;8341;42.048;24.650;2023-04-01T00:18:21;96364.97;;;11.18;55.81
16461;BME280;8341;42.048;24.650;2023-04-01T00:20:50;96336.22;;;10.95;55.41
16461;BME280;8341;42.048;24.650;2023-04-01T00:23:19;96375.41;;;11.14;55.14
16461;BME280;8341;42.048;24.650;2023-04-01T00:25:46;96372.16;;;11.04;55.23
16461;BME280;8341;42.048;24.650;2023-04-01T00:28:16;96378.13;;;11.08;55.05
16461;BME280;8341;42.048;24.650;2023-04-01T00:30:43;96384.34;;;11.09;54.54
16461;BME280;8341;42.048;24.650;2023-04-01T00:33:12;96382.84;;;11.08;54.32
16461;BME280;8341;42.048;24.650;2023-04-01T00:35:40;96390.53;;;11.15;55.26
16461;BME280;8341;42.048;24.650;2023-04-01T00:38:07;96378.91;;;11.14;54.92
16461;BME280;8341;42.048;24.650;2023-04-01T00:40:38;96378.38;;;11.16;55.11
16461;BME280;8341;42.048;24.650;2023-04-01T00:43:11;96391.53;;;11.17;55.74
16461;BME280;8341;42.048;24.650;2023-04-01T00:45:41;96391.53;;;11.17;56.05
16461;BME280;8341;42.048;24.650;2023-04-01T00:48:12;96384.31;;;11.20;55.79
16461;BME280;8341;42.048;24.650;2023-04-01T00:50:41;96384.31;;;11.20;56.21
16461;BME280;8341;42.048;24.650;2023-04-01T00:53:09;96376.88;;;11.20;56.64
16461;BME280;8341;42.048;24.650;2023-04-01T00:55:40;96378.16;;;11.19;57.98
16461;BME280;8341;42.048;24.650;2023-04-01T00:58:13;96346.13;;;10.87;57.82
16461;BME280;8341;42.048;24.650;2023-04-01T01:00:43;96366.22;;;11.00;58.10
16461;BME280;8341;42.048;24.650;2023-04-01T01:03:11;96369.94;;;11.03;57.67
16461;BME280;8341;42.048;24.650;2023-04-01T01:05:51;96360.53;;;10.93;58.01
16461;BME280;8341;42.048;24.650;2023-04-01T01:08:25;96368.69;;;11.09;58.15
16461;BME280;8341;42.048;24.650;2023-04-01T01:10:57;96368.22;;;11.05;57.82
16461;BME280;8341;42.048;24.650;2023-04-01T01:13:29;96364.72;;;10.99;58.67
16461;BME280;8341;42.048;24.650;2023-04-01T01:16:06;96354.31;;;10.98;58.33
16461;BME280;8341;42.048;24.650;2023-04-01T01:18:39;96359.78;;;11.09;58.56
16461;BME280;8341;42.048;24.650;2023-04-01T01:21:32;96367.47;;;11.16;59.64
16461;BME280;8341;42.048;24.650;2023-04-01T01:24:24;96364.25;;;11.06;59.04
16461;BME280;8341;42.048;24.650;2023-04-01T01:26:59;96366.72;;;11.15;57.24
16461;BME280;8341;42.048;24.650;2023-04-01T01:32:55;96351.34;;;11.18;57.99
16461;BME280;8341;42.048;24.650;2023-04-01T01:35:31;96350.09;;;11.30;57.51
16461;BME280;8341;42.048;24.650;2023-04-01T01:38:01;96342.88;;;11.38;59.85
16461;BME280;8341;42.048;24.650;2023-04-01T01:40:31;96343.63;;;11.33;59.74
16461;BME280;8341;42.048;24.650;2023-04-01T01:43:04;96353.56;;;11.36;58.73
16461;BME280;8341;42.048;24.650;2023-04-01T01:45:33;96349.09;;;11.44;59.49
16461;BME280;8341;42.048;24.650;2023-04-01T01:48:03;96347.59;;;11.43;59.60
16461;BME280;8341;42.048;24.650;2023-04-01T01:50:33;96342.13;;;11.43;60.07
16461;BME280;8341;42.048;24.650;2023-04-01T01:53:03;96349.34;;;11.35;61.11
16461;BME280;8341;42.048;24.650;2023-04-01T01:55:32;96349.84;;;11.33;60.45
16461;BME280;8341;42.048;24.650;2023-04-01T01:58:04;96344.66;;;11.24;60.76
16461;BME280;8341;42.048;24.650;2023-04-01T02:00:33;96349.13;;;11.22;60.44
16461;BME280;8341;42.048;24.650;2023-04-01T02:03:01;96330.25;;;11.13;60.59
16461;BME280;8341;42.048;24.650;2023-04-01T02:05:29;96300.03;;;10.89;61.35
16461;BME280;8341;42.048;24.650;2023-04-01T02:08:02;96320.84;;;11.08;61.66
16461;BME280;8341;42.048;24.650;2023-04-01T02:10:31;96323.31;;;10.90;61.65
16461;BME280;8341;42.048;24.650;2023-04-01T02:13:07;96321.34;;;10.85;63.11
16461;BME280;8341;42.048;24.650;2023-04-01T02:15:39;96314.91;;;10.65;62.59
16461;BME280;8341;42.048;24.650;2023-04-01T02:18:07;96327.28;;;10.72;62.57
16461;BME280;8341;42.048;24.650;2023-04-01T02:20:36;96318.63;;;10.68;62.67
16461;BME280;8341;42.048;24.650;2023-04-01T02:23:07;96312.66;;;10.69;62.42
16461;BME280;8341;42.048;24.650;2023-04-01T02:25:35;96283.88;;;10.46;63.26
16461;BME280;8341;42.048;24.650;2023-04-01T02:28:05;96311.44;;;10.71;62.63
16461;BME280;8341;42.048;24.650;2023-04-01T02:30:34;96300.00;;;10.66;63.22
16461;BME280;8341;42.048;24.650;2023-04-01T02:33:03;96304.72;;;10.72;62.76
16461;BME280;8341;42.048;24.650;2023-04-01T02:35:33;96265.56;;;10.47;63.63
16461;BME280;8341;42.048;24.650;2023-04-01T02:38:00;96309.69;;;10.73;64.17
16461;BME280;8341;42.048;24.650;2023-04-01T02:40:29;96301.50;;;10.67;64.28
16461;BME280;8341;42.048;24.650;2023-04-01T02:42:56;96301.50;;;10.56;64.68
16461;BME280;8341;42.048;24.650;2023-04-01T02:45:24;96289.84;;;10.56;64.13
16461;BME280;8341;42.048;24.650;2023-04-01T02:47:51;96315.91;;;10.68;63.93
16461;BME280;8341;42.048;24.650;2023-04-01T02:50:18;96317.59;;;10.71;63.60
16461;BME280;8341;42.048;24.650;2023-04-01T02:52:45;96317.63;;;10.77;63.76
16461;BME280;8341;42.048;24.650;2023-04-01T02:55:12;96321.34;;;10.62;65.65
16461;BME280;8341;42.048;24.650;2023-04-01T02:57:41;96310.19;;;10.55;66.17
16461;BME280;8341;42.048;24.650;2023-04-01T03:00:09;96311.63;;;10.39;66.32
16461;BME280;8341;42.048;24.650;2023-04-01T03:02:37;96313.59;;;10.33;67.57
16461;BME280;8341;42.048;24.650;2023-04-01T03:05:05;96262.00;;;10.07;66.96
16461;BME280;8341;42.048;24.650;2023-04-01T03:07:32;96297.97;;;10.28;67.24
16461;BME280;8341;42.048;24.650;2023-04-01T03:10:00;96216.59;;;9.71;67.30
16461;BME280;8341;42.048;24.650;2023-04-01T03:12:27;96294.25;;;10.20;67.92
16461;BME280;8341;42.048;24.650;2023-04-01T03:14:55;96311.34;;;10.21;67.48
16461;BME280;8341;42.048;24.650;2023-04-01T03:17:22;96304.66;;;10.16;68.01
16461;BME280;8341;42.048;24.650;2023-04-01T03:19:49;96299.38;;;10.07;68.03
16461;BME280;8341;42.048;24.650;2023-04-01T03:22:16;96291.94;;;10.02;68.43
16461;BME280;8341;42.048;24.650;2023-04-01T03:24:46;96288.00;;;10.03;68.20
16461;BME280;8341;42.048;24.650;2023-04-01T03:27:13;96291.72;;;10.05;68.04
16461;BME280;8341;42.048;24.650;2023-04-01T03:29:40;96282.00;;;9.99;68.64
16461;BME280;8341;42.048;24.650;2023-04-01T03:32:09;96280.53;;;9.98;69.00
16461;BME280;8341;42.048;24.650;2023-04-01T03:34:36;96270.13;;;9.91;69.67
16461;BME280;8341;42.048;24.650;2023-04-01T03:37:03;96270.41;;;9.98;69.59
16461;BME280;8341;42.048;24.650;2023-04-01T03:39:31;96272.84;;;9.91;69.94
16461;BME280;8341;42.048;24.650;2023-04-01T03:41:58;96265.94;;;10.01;69.23
16461;BME280;8341;42.048;24.650;2023-04-01T03:44:25;96271.63;;;9.97;69.80
16461;BME280;8341;42.048;24.650;2023-04-01T03:46:52;96266.19;;;9.97;69.27
16461;BME280;8341;42.048;24.650;2023-04-01T03:49:21;96237.91;;;9.73;69.05
16461;BME280;8341;42.048;24.650;2023-04-01T03:51:48;96260.69;;;9.86;69.44
16461;BME280;8341;42.048;24.650;2023-04-01T03:54:14;96270.59;;;9.84;70.61
16461;BME280;8341;42.048;24.650;2023-04-01T03:56:42;96257.16;;;9.69;70.88
16461;BME280;8341;42.048;24.650;2023-04-01T03:59:09;96263.38;;;9.70;71.57
16461;BME280;8341;42.048;24.650;2023-04-01T04:01:36;96255.69;;;9.63;71.29
16461;BME280;8341;42.048;24.650;2023-04-01T04:04:03;96255.44;;;9.72;71.11
16461;BME280;8341;42.048;24.650;2023-04-01T04:06:32;96246.09;;;9.78;70.69
16461;BME280;8341;42.048;24.650;2023-04-01T04:08:59;96254.78;;;9.88;70.78
16461;BME280;8341;42.048;24.650;2023-04-01T04:11:26;96251.28;;;9.82;70.74
16461;BME280;8341;42.048;24.650;2023-04-01T04:13:53;96250.31;;;9.90;70.61
16461;BME280;8341;42.048;24.650;2023-04-01T04:16:20;96258.22;;;9.94;69.79
16461;BME280;8341;42.048;24.650;2023-04-01T04:18:47;96247.09;;;9.92;69.79
16461;BME280;8341;42.048;24.650;2023-04-01T04:21:16;96249.56;;;9.90;69.84
16461;BME280;8341;42.048;24.650;2023-04-01T04:23:45;96251.97;;;9.60;71.95
16461;BME280;8341;42.048;24.650;2023-04-01T04:26:14;96252.50;;;9.75;71.32
16461;BME280;8341;42.048;24.650;2023-04-01T04:28:41;96231.69;;;9.67;70.99
16461;BME280;8341;42.048;24.650;2023-04-01T04:31:09;96260.97;;;9.99;70.91
16461;BME280;8341;42.048;24.650;2023-04-01T04:33:36;96252.28;;;9.90;71.07
16461;BME280;8341;42.048;24.650;2023-04-01T04:36:04;96245.34;;;9.89;69.94
16461;BME280;8341;42.048;24.650;2023-04-01T04:38:31;96250.63;;;10.15;69.48
16461;BME280;8341;42.048;24.650;2023-04-01T04:41:00;96263.06;;;10.32;70.07
16461;BME280;8341;42.048;24.650;2023-04-01T04:43:27;96222.81;;;9.77;70.35
16461;BME280;8341;42.048;24.650;2023-04-01T04:45:54;96264.78;;;10.24;70.09
16461;BME280;8341;42.048;24.650;2023-04-01T04:48:21;96264.53;;;10.33;70.24
16461;BME280;8341;42.048;24.650;2023-04-01T04:50:49;96261.59;;;10.37;70.35
16461;BME280;8341;42.048;24.650;2023-04-01T04:53:18;96268.78;;;10.34;70.69
16461;BME280;8341;42.048;24.650;2023-04-01T04:55:46;96255.88;;;10.40;69.29
16461;BME280;8341;42.048;24.650;2023-04-01T04:58:15;96254.41;;;10.50;68.73
16461;BME280;8341;42.048;24.650;2023-04-01T05:00:43;96267.31;;;10.78;68.24
16461;BME280;8341;42.048;24.650;2023-04-01T05:03:10;96266.28;;;10.92;69.15
16461;BME280;8341;42.048;24.650;2023-04-01T05:05:38;96271.22;;;11.10;67.93
16461;BME280;8341;42.048;24.650;2023-04-01T05:08:05;96275.19;;;11.20;67.45
16461;BME280;8341;42.048;24.650;2023-04-01T05:10:32;96277.94;;;11.03;67.24
16461;BME280;8341;42.048;24.650;2023-04-01T05:12:59;96267.00;;;11.20;67.18
16461;BME280;8341;42.048;24.650;2023-04-01T05:15:28;96269.19;;;11.38;67.12
16461;BME280;8341;42.048;24.650;2023-04-01T05:17:55;96258.25;;;11.49;68.20
16461;BME280;8341;42.048;24.650;2023-04-01T05:20:22;96261.41;;;11.64;67.46
16461;BME280;8341;42.048;24.650;2023-04-01T05:22:49;96256.19;;;11.66;65.81
16461;BME280;8341;42.048;24.650;2023-04-01T05:25:16;96255.72;;;11.57;67.54
16461;BME280;8341;42.048;24.650;2023-04-01T05:27:43;96253.13;;;11.18;69.26
16461;BME280;8341;42.048;24.650;2023-04-01T05:30:11;96248.16;;;11.22;67.18
16461;BME280;8341;42.048;24.650;2023-04-01T05:32:39;96253.81;;;11.35;66.31
16461;BME280;8341;42.048;24.650;2023-04-01T05:35:07;96240.44;;;11.37;67.97
16461;BME280;8341;42.048;24.650;2023-04-01T05:37:34;96231.72;;;11.44;66.72
16461;BME280;8341;42.048;24.650;2023-04-01T05:40:02;96222.53;;;11.47;66.63
16461;BME280;8341;42.048;24.650;2023-04-01T05:42:29;96220.50;;;11.53;66.76
16461;BME280;8341;42.048;24.650;2023-04-01T05:44:57;96222.00;;;11.54;66.42
16461;BME280;8341;42.048;24.650;2023-04-01T05:47:24;96204.59;;;11.57;67.01
16461;BME280;8341;42.048;24.650;2023-04-01T05:49:52;96195.94;;;11.53;66.89
16461;BME280;8341;42.048;24.650;2023-04-01T05:52:20;96193.59;;;11.22;66.47
16461;BME280;8341;42.048;24.650;2023-04-01T05:54:47;96201.78;;;11.22;66.08
16461;BME280;8341;42.048;24.650;2023-04-01T05:57:14;96164.13;;;11.04;65.83
16461;BME280;8341;42.048;24.650;2023-04-01T05:59:41;96193.47;;;11.50;66.53
16461;BME280;8341;42.048;24.650;2023-04-01T06:02:08;96197.66;;;11.56;66.84
16461;BME280;8341;42.048;24.650;2023-04-01T06:04:38;96201.09;;;11.62;66.33
16461;BME280;8341;42.048;24.650;2023-04-01T06:07:12;96191.84;;;11.82;64.94
16461;BME280;8341;42.048;24.650;2023-04-01T06:09:40;96187.06;;;11.93;64.57
16461;BME280;8341;42.048;24.650;2023-04-01T06:12:40;96166.66;;;12.00;64.86
16461;BME280;8341;42.048;24.650;2023-04-01T06:15:27;96172.47;;;12.21;64.81
16461;BME280;8341;42.048;24.650;2023-04-01T06:18:09;96146.06;;;12.29;64.92
16461;BME280;8341;42.048;24.650;2023-04-01T06:20:45;96158.38;;;12.41;64.44
16461;BME280;8341;42.048;24.650;2023-04-01T06:23:32;96163.28;;;12.48;64.02
16461;BME280;8341;42.048;24.650;2023-04-01T06:26:12;96158.72;;;12.32;63.42
16461;BME280;8341;42.048;24.650;2023-04-01T06:35:17;96159.91;;;11.60;67.62
16461;BME280;8341;42.048;24.650;2023-04-01T06:38:01;96156.50;;;11.43;68.92
16461;BME280;8341;42.048;24.650;2023-04-01T06:43:51;96157.66;;;11.70;68.76
16461;BME280;8341;42.048;24.650;2023-04-01T06:46:29;96172.94;;;11.89;69.26
16461;BME280;8341;42.048;24.650;2023-04-01T06:49:12;96176.44;;;11.84;70.04
16461;BME280;8341;42.048;24.650;2023-04-01T06:51:52;96167.84;;;11.69;71.46
16461;BME280;8341;42.048;24.650;2023-04-01T06:54:28;96166.59;;;11.65;72.53
16461;BME280;8341;42.048;24.650;2023-04-01T06:57:01;96162.31;;;11.17;76.51
16461;BME280;8341;42.048;24.650;2023-04-01T06:59:34;96165.81;;;11.18;77.56
16461;BME280;8341;42.048;24.650;2023-04-01T07:02:14;96166.53;;;11.18;78.17
16461;BME280;8341;42.048;24.650;2023-04-01T07:04:46;96154.66;;;11.16;79.80
16461;BME280;8341;42.048;24.650;2023-04-01T07:07:21;96151.25;;;11.56;77.30
16461;BME280;8341;42.048;24.650;2023-04-01T07:09:52;96156.25;;;11.99;75.68
16461;BME280;8341;42.048;24.650;2023-04-01T07:12:29;96149.91;;;12.15;74.61
16461;BME280;8341;42.048;24.650;2023-04-01T07:15:13;96150.44;;;12.08;74.59
16461;BME280;8341;42.048;24.650;2023-04-01T07:17:43;96145.50;;;12.36;73.28
16461;BME280;8341;42.048;24.650;2023-04-01T07:20:17;96141.69;;;12.15;75.03
16461;BME280;8341;42.048;24.650;2023-04-01T07:22:48;96143.94;;;12.46;73.89
16461;BME280;8341;42.048;24.650;2023-04-01T07:25:20;96124.03;;;12.45;72.71
16461;BME280;8341;42.048;24.650;2023-04-01T07:27:48;96117.84;;;12.69;71.77
16461;BME280;8341;42.048;24.650;2023-04-01T07:30:19;96126.06;;;12.93;69.54
16461;BME280;8341;42.048;24.650;2023-04-01T07:32:48;96125.25;;;12.74;73.09
16461;BME280;8341;42.048;24.650;2023-04-01T07:35:23;96137.44;;;12.79;72.09
16461;BME280;8341;42.048;24.650;2023-04-01T07:38:01;96124.69;;;12.57;75.31
16461;BME280;8341;42.048;24.650;2023-04-01T07:40:39;96117.38;;;12.71;74.24
16461;BME280;8341;42.048;24.650;2023-04-01T07:43:28;96112.44;;;12.39;77.21
16461;BME280;8341;42.048;24.650;2023-04-01T07:46:09;96108.88;;;12.50;75.34
16461;BME280;8341;42.048;24.650;2023-04-01T07:48:46;96128.00;;;12.74;75.16
16461;BME280;8341;42.048;24.650;2023-04-01T07:51:22;96124.59;;;12.68;76.73
16461;BME280;8341;42.048;24.650;2023-04-01T07:53:57;96132.25;;;12.45;77.37
16461;BME280;8341;42.048;24.650;2023-04-01T07:56:32;96127.06;;;12.42;78.35
16461;BME280;8341;42.048;24.650;2023-04-01T07:59:07;96132.56;;;12.90;75.70
16461;BME280;8341;42.048;24.650;2023-04-01T08:01:46;96139.16;;;13.00;73.47
16461;BME280;8341;42.048;24.650;2023-04-01T08:04:28;96135.09;;;12.88;72.91
16461;BME280;8341;42.048;24.650;2023-04-01T08:07:03;96112.00;;;13.08;72.97
16461;BME280;8341;42.048;24.650;2023-04-01T08:09:39;96115.25;;;13.25;72.53
16461;BME280;8341;42.048;24.650;2023-04-01T08:12:21;96072.16;;;12.64;73.71
16461;BME280;8341;42.048;24.650;2023-04-01T08:14:58;96102.34;;;12.77;75.38
16461;BME280;8341;42.048;24.650;2023-04-01T08:17:36;96089.50;;;12.72;74.49
16461;BME280;8341;42.048;24.650;2023-04-01T08:20:18;96081.63;;;12.63;75.98
16461;BME280;8341;42.048;24.650;2023-04-01T08:22:52;96078.78;;;12.50;76.02
16461;BME280;8341;42.048;24.650;2023-04-01T08:25:26;96078.84;;;12.44;77.10
16461;BME280;8341;42.048;24.650;2023-04-01T08:27:56;96077.56;;;12.70;75.84
16461;BME280;8341;42.048;24.650;2023-04-01T08:30:28;96082.47;;;12.77;74.94
16461;BME280;8341;42.048;24.650;2023-04-01T08:33:09;96087.75;;;12.93;74.47
16461;BME280;8341;42.048;24.650;2023-04-01T08:35:41;96088.63;;;13.07;73.70
16461;BME280;8341;42.048;24.650;2023-04-01T08:38:13;96064.59;;;13.18;73.87
16461;BME280;8341;42.048;24.650;2023-04-01T08:40:58;96058.63;;;12.96;74.87
16461;BME280;8341;42.048;24.650;2023-04-01T08:43:51;96047.00;;;13.33;73.59
16461;BME280;8341;42.048;24.650;2023-04-01T08:49:27;96056.59;;;13.58;71.25
16461;BME280;8341;42.048;24.650;2023-04-01T08:52:17;96040.59;;;13.62;72.25
16461;BME280;8341;42.048;24.650;2023-04-01T08:54:56;96040.19;;;14.03;69.50
16461;BME280;8341;42.048;24.650;2023-04-01T08:57:40;96041.06;;;13.47;71.43
16461;BME280;8341;42.048;24.650;2023-04-01T09:00:19;96032.16;;;13.60;71.55
16461;BME280;8341;42.048;24.650;2023-04-01T09:03:22;96022.81;;;13.68;71.14
16461;BME280;8341;42.048;24.650;2023-04-01T09:06:29;96023.44;;;13.43;72.47
16461;BME280;8341;42.048;24.650;2023-04-01T09:09:35;96019.22;;;13.42;72.56
16461;BME280;8341;42.048;24.650;2023-04-01T09:15:42;96007.53;;;13.23;73.41
16461;BME280;8341;42.048;24.650;2023-04-01T09:21:33;95997.06;;;13.58;72.52
16461;BME280;8341;42.048;24.650;2023-04-01T09:24:21;95996.66;;;13.36;72.97
16461;BME280;8341;42.048;24.650;2023-04-01T09:27:04;95983.34;;;13.27;74.78
16461;BME280;8341;42.048;24.650;2023-04-01T09:29:44;95980.78;;;13.66;72.44
16461;BME280;8341;42.048;24.650;2023-04-01T09:32:38;95967.47;;;13.57;72.48
16461;BME280;8341;42.048;24.650;2023-04-01T09:35:25;95958.44;;;13.43;72.90
16461;BME280;8341;42.048;24.650;2023-04-01T09:38:06;95967.09;;;13.79;71.78
16461;BME280;8341;42.048;24.650;2023-04-01T09:40:46;95906.00;;;12.89;73.55
16461;BME280;8341;42.048;24.650;2023-04-01T09:43:27;95967.47;;;13.57;72.79
16461;BME280;8341;42.048;24.650;2023-04-01T09:46:18;95965.50;;;13.39;73.24
16461;BME280;8341;42.048;24.650;2023-04-01T09:49:14;95950.56;;;13.40;74.08
16461;BME280;8341;42.048;24.650;2023-04-01T09:51:53;95965.38;;;13.63;72.98
16461;BME280;8341;42.048;24.650;2023-04-01T09:54:38;95956.59;;;13.20;73.93
16461;BME280;8341;42.048;24.650;2023-04-01T09:57:34;95958.59;;;13.51;73.50
16461;BME280;8341;42.048;24.650;2023-04-01T10:00:30;95949.00;;;13.89;71.86
16461;BME280;8341;42.048;24.650;2023-04-01T10:03:30;95962.16;;;13.91;71.03
16461;BME280;8341;42.048;24.650;2023-04-01T10:09:41;95947.72;;;13.90;70.64
16461;BME280;8341;42.048;24.650;2023-04-01T10:15:51;95926.88;;;14.26;69.04
16461;BME280;8341;42.048;24.650;2023-04-01T10:18:49;95909.44;;;13.85;69.78
16461;BME280;8341;42.048;24.650;2023-04-01T10:21:42;95919.38;;;14.01;69.70
16461;BME280;8341;42.048;24.650;2023-04-01T10:24:37;95907.28;;;14.09;70.16
16461;BME280;8341;42.048;24.650;2023-04-01T10:27:33;95899.88;;;14.43;69.38
16461;BME280;8341;42.048;24.650;2023-04-01T10:33:51;95874.13;;;14.47;68.93
16461;BME280;8341;42.048;24.650;2023-04-01T10:36:48;95866.00;;;14.88;66.58
16461;BME280;8341;42.048;24.650;2023-04-01T10:39:33;95861.00;;;15.20;65.98
16461;BME280;8341;42.048;24.650;2023-04-01T10:42:30;95851.47;;;14.80;67.11
16461;BME280;8341;42.048;24.650;2023-04-01T10:45:42;95850.56;;;15.39;67.85
16461;BME280;8341;42.048;24.650;2023-04-01T10:48:34;95840.06;;;15.79;63.18
16461;BME280;8341;42.048;24.650;2023-04-01T10:51:17;95828.31;;;16.07;62.43
16461;BME280;8341;42.048;24.650;2023-04-01T10:54:16;95825.38;;;16.48;60.58
16461;BME280;8341;42.048;24.650;2023-04-01T10:56:55;95812.13;;;17.13;58.98
16461;BME280;8341;42.048;24.650;2023-04-01T11:00:03;95804.06;;;17.22;57.69
16461;BME280;8341;42.048;24.650;2023-04-01T11:12:25;95781.78;;;18.36;52.82
16461;BME280;8341;42.048;24.650;2023-04-01T11:15:27;95785.88;;;18.20;52.21
16461;BME280;8341;42.048;24.650;2023-04-01T11:23:54;95732.97;;;17.43;53.71
16461;BME280;8341;42.048;24.650;2023-04-01T11:26:33;95757.84;;;17.91;54.23
16461;BME280;8341;42.048;24.650;2023-04-01T11:29:19;95741.50;;;17.85;52.37
16461;BME280;8341;42.048;24.650;2023-04-01T11:31:57;95757.19;;;17.60;54.04
16461;BME280;8341;42.048;24.650;2023-04-01T11:34:39;95733.88;;;17.23;54.41
16461;BME280;8341;42.048;24.650;2023-04-01T11:37:18;95749.72;;;17.15;55.04
16461;BME280;8341;42.048;24.650;2023-04-01T11:39:59;95767.28;;;17.50;54.94
16461;BME280;8341;42.048;24.650;2023-04-01T11:42:38;95748.22;;;17.22;55.03
16461;BME280;8341;42.048;24.650;2023-04-01T11:45:16;95763.63;;;17.47;55.90
16461;BME280;8341;42.048;24.650;2023-04-01T11:48:18;95769.50;;;17.36;55.30
16461;BME280;8341;42.048;24.650;2023-04-01T11:51:05;95775.56;;;17.58;55.42
16461;BME280;8341;42.048;24.650;2023-04-01T11:53:44;95774.53;;;18.08;53.82
16461;BME280;8341;42.048;24.650;2023-04-01T11:56:32;95775.22;;;17.61;55.27
16461;BME280;8341;42.048;24.650;2023-04-01T11:59:38;95775.53;;;17.80;54.75
16461;BME280;8341;42.048;24.650;2023-04-01T12:02:18;95781.84;;;17.35;54.83
16461;BME280;8341;42.048;24.650;2023-04-01T12:05:18;95751.13;;;16.56;57.04
16461;BME280;8341;42.048;24.650;2023-04-01T12:08:01;95753.34;;;17.03;56.53
16461;BME280;8341;42.048;24.650;2023-04-01T12:10:39;95754.47;;;17.00;55.97
16461;BME280;8341;42.048;24.650;2023-04-01T12:13:17;95736.47;;;16.68;57.57
16461;BME280;8341;42.048;24.650;2023-04-01T12:16:04;95737.97;;;16.84;58.01
16461;BME280;8341;42.048;24.650;2023-04-01T12:18:38;95718.44;;;17.50;56.29
16461;BME280;8341;42.048;24.650;2023-04-01T12:21:18;95726.84;;;17.75;54.77
16461;BME280;8341;42.048;24.650;2023-04-01T12:24:11;95691.94;;;17.70;54.41
16461;BME280;8341;42.048;24.650;2023-04-01T12:29:59;95703.53;;;18.08;53.75
16461;BME280;8341;42.048;24.650;2023-04-01T12:32:38;95702.44;;;18.11;53.19
16461;BME280;8341;42.048;24.650;2023-04-01T12:35:18;95694.13;;;17.79;53.79
16461;BME280;8341;42.048;24.650;2023-04-01T12:37:55;95678.97;;;17.95;53.74
16461;BME280;8341;42.048;24.650;2023-04-01T12:40:33;95673.31;;;18.26;51.70
16461;BME280;8341;42.048;24.650;2023-04-01T12:46:10;95681.91;;;18.30;51.76
16461;BME280;8341;42.048;24.650;2023-04-01T12:48:59;95671.91;;;18.09;52.21
16461;BME280;8341;42.048;24.650;2023-04-01T12:51:40;95670.00;;;18.20;52.58
16461;BME280;8341;42.048;24.650;2023-04-01T12:57:21;95650.47;;;17.45;54.78
16461;BME280;8341;42.048;24.650;2023-04-01T13:00:03;95654.47;;;17.52;54.54
16461;BME280;8341;42.048;24.650;2023-04-01T13:02:43;95661.50;;;17.53;54.76
16461;BME280;8341;42.048;24.650;2023-04-01T13:05:46;95665.34;;;17.42;54.29
16461;BME280;8341;42.048;24.650;2023-04-01T13:08:28;95644.22;;;17.92;54.71
16461;BME280;8341;42.048;24.650;2023-04-01T13:11:07;95622.47;;;17.64;52.61
16461;BME280;8341;42.048;24.650;2023-04-01T13:14:09;95653.28;;;18.18;53.39
16461;BME280;8341;42.048;24.650;2023-04-01T13:16:42;95651.03;;;18.24;51.50
16461;BME280;8341;42.048;24.650;2023-04-01T13:19:19;95641.03;;;18.36;51.82
16461;BME280;8341;42.048;24.650;2023-04-01T13:21:54;95646.50;;;18.43;51.62
16461;BME280;8341;42.048;24.650;2023-04-01T13:24:35;95661.22;;;18.46;50.88
16461;BME280;8341;42.048;24.650;2023-04-01T13:27:11;95668.81;;;18.38;51.75
16461;BME280;8341;42.048;24.650;2023-04-01T13:29:43;95680.59;;;17.98;52.65
16461;BME280;8341;42.048;24.650;2023-04-01T13:32:25;95735.91;;;17.38;54.05
16461;BME280;8341;42.048;24.650;2023-04-01T13:35:07;95820.13;;;16.65;56.00
16461;BME280;8341;42.048;24.650;2023-04-01T13:37:49;95840.91;;;16.31;57.68
16461;BME280;8341;42.048;24.650;2023-04-01T13:40:27;95863.97;;;15.92;59.28
16461;BME280;8341;42.048;24.650;2023-04-01T13:43:02;95881.34;;;15.87;59.47
16461;BME280;8341;42.048;24.650;2023-04-01T13:45:38;95897.38;;;15.75;60.81
16461;BME280;8341;42.048;24.650;2023-04-01T13:48:27;95910.50;;;15.69;65.77
16461;BME280;8341;42.048;24.650;2023-04-01T13:54:44;95893.66;;;14.90;71.25
16461;BME280;8341;42.048;24.650;2023-04-01T13:57:27;95926.44;;;14.62;77.25
16461;BME280;8341;42.048;24.650;2023-04-01T14:00:32;95950.44;;;14.35;81.08
16461;BME280;8341;42.048;24.650;2023-04-01T14:03:24;95963.25;;;14.14;80.97
16461;BME280;8341;42.048;24.650;2023-04-01T14:06:06;95963.94;;;13.88;80.66
16461;BME280;8341;42.048;24.650;2023-04-01T14:08:49;95972.25;;;13.82;81.95
16461;BME280;8341;42.048;24.650;2023-04-01T14:11:24;95972.81;;;13.81;79.94
16461;BME280;8341;42.048;24.650;2023-04-01T14:13:59;95971.22;;;13.86;83.56
16461;BME280;8341;42.048;24.650;2023-04-01T14:19:48;95944.06;;;14.14;82.44
16461;BME280;8341;42.048;24.650;2023-04-01T14:22:23;95956.22;;;14.45;83.95
16461;BME280;8341;42.048;24.650;2023-04-01T14:25:26;95946.28;;;14.55;83.04
16461;BME280;8341;42.048;24.650;2023-04-01T14:28:03;95936.06;;;14.55;84.41
16461;BME280;8341;42.048;24.650;2023-04-01T14:30:45;95907.91;;;14.41;83.40
16461;BME280;8341;42.048;24.650;2023-04-01T14:33:29;95913.03;;;14.71;80.79
16461;BME280;8341;42.048;24.650;2023-04-01T14:36:12;95902.75;;;14.85;79.98
16461;BME280;8341;42.048;24.650;2023-04-01T14:38:51;95899.81;;;14.83;77.87
16461;BME280;8341;42.048;24.650;2023-04-01T14:41:31;95872.97;;;14.89;80.07
16461;BME280;8341;42.048;24.650;2023-04-01T14:44:23;95861.22;;;15.01;80.18
16461;BME280;8341;42.048;24.650;2023-04-01T14:47:26;95845.94;;;15.14;77.39
16461;BME280;8341;42.048;24.650;2023-04-01T14:50:06;95855.66;;;15.15;79.60
16461;BME280;8341;42.048;24.650;2023-04-01T14:52:38;95856.84;;;15.06;81.01